Time;durP1;ratioP1;P1;durP2;ratioP2;P2;SDS_P1;SDS_P2;PMS_P1;PMS_P2;Temp;Humidity;BMP_temperature;BMP_pressure;BME280_temperature;BME280_humidity;BME280_pressure;Samples;Min_cycle;Max_cycle;Signal;HPM_P1;HPM_P2
2023/02/03 00:00:49;;;;;;;11.33;2.67;;;;;;;9.31;100.00;102321.69;2615113;36;20038;-52
2023/02/03 00:03:20;;;;;;;8.05;3.13;;;;;;;9.32;100.00;102315.34;2615953;36;20431;-53
2023/02/03 00:05:48;;;;;;;10.13;2.85;;;;;;;9.29;100.00;102305.66;2614887;36;20038;-54
2023/02/03 00:08:19;;;;;;;11.20;2.50;;;;;;;9.28;100.00;102310.16;2616076;36;20038;-50
2023/02/03 00:10:48;;;;;;;6.97;2.45;;;;;;;9.23;100.00;102330.19;2613966;36;20042;-54
2023/02/03 00:13:16;;;;;;;14.05;3.20;;;;;;;9.17;100.00;102325.19;2615379;36;20105;-55
2023/02/03 00:15:45;;;;;;;7.55;2.55;;;;;;;9.16;100.00;102326.13;2614955;31;20034;-56
2023/02/03 00:18:13;;;;;;;9.65;2.58;;;;;;;9.26;100.00;102324.63;2613672;31;20581;-50
2023/02/03 00:20:45;;;;;;;8.40;2.72;;;;;;;9.24;100.00;102335.47;2614511;31;20034;-50
2023/02/03 00:23:14;;;;;;;6.88;2.95;;;;;;;9.22;100.00;102347.28;2615375;36;20041;-53
2023/02/03 00:25:42;;;;;;;9.02;2.42;;;;;;;9.27;100.00;102351.41;2615239;36;20026;-56
2023/02/03 00:28:11;;;;;;;7.53;2.50;;;;;;;9.26;100.00;102352.38;2614194;36;20463;-50
2023/02/03 00:30:39;;;;;;;11.83;2.87;;;;;;;9.35;100.00;102348.28;2614592;36;20023;-53
2023/02/03 00:33:08;;;;;;;11.38;2.80;;;;;;;9.28;100.00;102345.06;2614058;36;20969;-54
2023/02/03 00:35:39;;;;;;;8.63;2.72;;;;;;;9.29;100.00;102341.44;2615248;31;20555;-52
2023/02/03 00:38:10;;;;;;;11.98;3.00;;;;;;;9.27;100.00;102342.50;2613013;36;20037;-54
2023/02/03 00:40:39;;;;;;;6.70;2.30;;;;;;;9.24;100.00;102338.16;2613132;36;20034;-55
2023/02/03 00:43:07;;;;;;;14.77;2.67;;;;;;;9.25;100.00;102347.09;2612947;36;20027;-57
2023/02/03 00:45:35;;;;;;;11.13;2.47;;;;;;;9.19;100.00;102342.09;2612456;36;20062;-53
2023/02/03 00:48:04;;;;;;;12.25;2.60;;;;;;;9.26;100.00;102338.06;2612007;36;21272;-51
2023/02/03 00:50:33;;;;;;;9.05;2.25;;;;;;;9.34;100.00;102337.63;2613531;36;20631;-52
2023/02/03 00:53:01;;;;;;;11.02;3.03;;;;;;;9.24;100.00;102326.56;2613878;31;20573;-55
2023/02/03 00:55:32;;;;;;;10.10;2.28;;;;;;;9.26;100.00;102335.38;2614244;36;20046;-52
2023/02/03 00:58:00;;;;;;;9.48;2.13;;;;;;;9.18;100.00;102311.66;2615205;36;20046;-53
2023/02/03 01:00:32;;;;;;;13.38;2.67;;;;;;;9.15;100.00;102313.69;2613556;31;20034;-54
2023/02/03 01:03:00;;;;;;;7.10;2.10;;;;;;;9.24;100.00;102302.38;2612127;36;20567;-52
2023/02/03 01:05:29;;;;;;;9.32;2.17;;;;;;;9.26;100.00;102308.50;2615057;36;20401;-55
2023/02/03 01:07:57;;;;;;;10.10;2.15;;;;;;;9.23;100.00;102300.63;2613127;36;20050;-53
2023/02/03 01:10:25;;;;;;;6.85;1.90;;;;;;;9.26;100.00;102322.81;2614525;31;20047;-56
2023/02/03 01:12:56;;;;;;;9.48;2.22;;;;;;;9.24;100.00;102339.97;2615356;36;20419;-52
2023/02/03 01:15:25;;;;;;;11.02;2.40;;;;;;;9.20;100.00;102330.38;2614388;36;20038;-50
2023/02/03 01:17:53;;;;;;;8.25;2.00;;;;;;;9.22;100.00;102320.41;2613999;36;20035;-51
2023/02/03 01:20:23;;;;;;;6.20;2.20;;;;;;;9.15;100.00;102313.69;2611918;36;20041;-55
2023/02/03 01:22:51;;;;;;;12.70;2.60;;;;;;;9.18;100.00;102316.19;2615041;36;20067;-55
2023/02/03 01:25:19;;;;;;;12.73;2.50;;;;;;;9.23;100.00;102296.16;2614706;36;20045;-51
2023/02/03 01:27:48;;;;;;;9.83;1.97;;;;;;;9.19;100.00;102302.66;2612934;36;20039;-55
2023/02/03 01:30:19;;;;;;;7.88;1.85;;;;;;;9.27;100.00;102294.13;2614482;31;20673;-52
2023/02/03 01:32:48;;;;;;;11.23;2.10;;;;;;;9.25;100.00;102288.00;2613932;31;20539;-57
2023/02/03 01:35:16;;;;;;;14.18;2.22;;;;;;;9.17;100.00;102290.25;2614675;36;20131;-56
2023/02/03 01:37:44;;;;;;;7.07;2.25;;;;;;;9.19;100.00;102289.22;2614415;36;20026;-55
2023/02/03 01:40:14;;;;;;;7.43;2.33;;;;;;;9.24;100.00;102280.88;2614127;36;20030;-52
2023/02/03 01:42:42;;;;;;;7.38;2.13;;;;;;;9.20;100.00;102279.34;2614193;36;20026;-53
2023/02/03 01:45:12;;;;;;;9.63;2.10;;;;;;;9.23;100.00;102284.50;2614077;36;20042;-55
2023/02/03 01:47:47;;;;;;;7.10;1.67;;;;;;;9.25;100.00;102285.31;2614369;36;20045;-52
2023/02/03 01:50:25;;;;;;;9.18;3.03;;;;;;;9.16;100.00;102272.41;2613523;36;20046;-56
2023/02/03 01:52:58;;;;;;;7.50;2.28;;;;;;;9.15;100.00;102270.69;2613288;36;20038;-56
2023/02/03 01:55:32;;;;;;;9.07;2.08;;;;;;;9.17;100.00;102268.78;2613751;36;20330;-55
2023/02/03 01:58:04;;;;;;;8.68;2.10;;;;;;;9.14;100.00;102269.81;2613187;36;20034;-53
2023/02/03 02:00:33;;;;;;;10.02;1.95;;;;;;;9.11;100.00;102273.56;2614119;36;20030;-54
2023/02/03 02:03:07;;;;;;;6.15;1.95;;;;;;;9.15;100.00;102259.94;2614153;36;20031;-55
2023/02/03 02:05:39;;;;;;;13.70;2.40;;;;;;;9.21;100.00;102259.56;2613183;36;20038;-56
2023/02/03 02:08:09;;;;;;;10.68;2.70;;;;;;;9.20;100.00;102274.84;2613154;31;20042;-58
2023/02/03 02:10:43;;;;;;;9.57;1.88;;;;;;;9.17;100.00;102274.16;2614200;39;20462;-55
2023/02/03 02:13:14;;;;;;;9.25;2.40;;;;;;;9.21;100.00;102286.44;2614970;36;20069;-56
2023/02/03 02:15:52;;;;;;;6.65;2.55;;;;;;;9.16;100.00;102273.28;2613389;36;20034;-54
2023/02/03 02:18:35;;;;;;;9.83;2.03;;;;;;;9.17;100.00;102252.66;2613181;36;20061;-57
2023/02/03 02:21:36;;;;;;;8.35;1.77;;;;;;;9.23;100.00;102252.28;2614348;31;20447;-54
2023/02/03 02:24:41;;;;;;;11.25;1.90;;;;;;;9.21;100.00;102254.22;2613765;36;20026;-50
2023/02/03 02:27:18;;;;;;;9.10;1.92;;;;;;;9.22;100.00;102261.31;2613276;36;20039;-50
2023/02/03 02:30:22;;;;;;;5.43;1.70;;;;;;;9.15;100.00;102263.50;2613680;36;20035;-49
2023/02/03 02:33:03;;;;;;;8.45;2.15;;;;;;;9.29;100.00;102281.47;2614013;36;20080;-52
2023/02/03 02:35:46;;;;;;;7.95;1.92;;;;;;;9.21;100.00;102263.13;2613677;36;20034;-53
2023/02/03 02:38:21;;;;;;;6.22;1.77;;;;;;;9.38;100.00;102259.41;2612916;36;20053;-54
2023/02/03 02:40:56;;;;;;;13.70;2.65;;;;;;;9.31;100.00;102243.78;2615243;36;20037;-51
2023/02/03 02:43:29;;;;;;;6.88;2.00;;;;;;;9.23;100.00;102241.53;2614159;31;20054;-51
2023/02/03 02:46:03;;;;;;;6.60;2.20;;;;;;;9.31;100.00;102233.88;2614204;36;20166;-53
2023/02/03 02:48:38;;;;;;;7.68;1.33;;;;;;;9.27;100.00;102243.94;2613476;36;20438;-53
2023/02/03 02:51:09;;;;;;;6.70;1.88;;;;;;;9.27;100.00;102243.06;2614688;36;20027;-52
2023/02/03 02:53:42;;;;;;;4.90;1.88;;;;;;;9.39;100.00;102252.22;2613495;36;20042;-53
2023/02/03 02:56:12;;;;;;;7.20;1.90;;;;;;;9.38;100.00;102245.97;2613355;36;20042;-55
2023/02/03 02:58:46;;;;;;;7.78;1.65;;;;;;;9.37;100.00;102254.13;2615298;36;20026;-51
2023/02/03 03:01:15;;;;;;;8.90;1.50;;;;;;;9.34;100.00;102249.81;2614716;36;20069;-51
2023/02/03 03:03:46;;;;;;;4.20;1.45;;;;;;;9.31;100.00;102249.16;2613966;36;21034;-52
2023/02/03 03:06:21;;;;;;;6.40;1.50;;;;;;;9.46;100.00;102224.00;2615012;31;20042;-53
2023/02/03 03:08:54;;;;;;;7.35;1.60;;;;;;;9.37;100.00;102233.50;2613563;36;20034;-53
2023/02/03 03:11:24;;;;;;;5.55;1.45;;;;;;;9.34;100.00;102232.84;2614573;36;20578;-52
2023/02/03 03:13:55;;;;;;;6.28;1.50;;;;;;;9.31;100.00;102241.94;2614320;31;20431;-56
2023/02/03 03:16:26;;;;;;;5.03;1.42;;;;;;;9.29;100.00;102236.66;2614578;36;20039;-55
2023/02/03 03:19:01;;;;;;;5.88;1.50;;;;;;;9.26;100.00;102201.94;2615208;36;20063;-53
2023/02/03 03:21:34;;;;;;;6.28;1.40;;;;;;;9.38;100.00;102240.59;2613851;36;20034;-54
2023/02/03 03:24:09;;;;;;;8.40;1.40;;;;;;;9.42;100.00;102247.53;2615510;36;20038;-50
2023/02/03 03:26:43;;;;;;;10.35;1.60;;;;;;;9.35;100.00;102219.31;2614640;36;20034;-54
2023/02/03 03:29:15;;;;;;;5.65;1.20;;;;;;;9.41;100.00;102239.56;2614179;31;20034;-55
2023/02/03 03:31:44;;;;;;;8.75;1.75;;;;;;;9.43;100.00;102243.00;2615130;36;20435;-53
2023/02/03 03:34:16;;;;;;;9.68;1.92;;;;;;;9.50;100.00;102232.75;2614379;31;20046;-51
2023/02/03 03:36:49;;;;;;;10.23;1.88;;;;;;;9.47;100.00;102245.41;2614474;36;20039;-54
2023/02/03 03:39:26;;;;;;;4.82;1.35;;;;;;;9.44;100.00;102234.00;2614949;36;20038;-53
2023/02/03 03:42:06;;;;;;;5.55;1.40;;;;;;;9.41;100.00;102235.03;2614277;36;20038;-55
2023/02/03 03:44:41;;;;;;;6.95;1.48;;;;;;;9.35;100.00;102232.75;2613366;31;20034;-52
2023/02/03 03:47:18;;;;;;;7.60;1.50;;;;;;;9.38;100.00;102239.72;2614552;36;20046;-52
2023/02/03 03:49:52;;;;;;;7.03;1.75;;;;;;;9.39;100.00;102238.78;2613063;36;20027;-53
2023/02/03 03:52:24;;;;;;;12.15;1.75;;;;;;;9.45;100.00;102238.38;2615399;36;20549;-56
2023/02/03 03:54:55;;;;;;;7.18;1.70;;;;;;;9.39;100.00;102244.16;2614924;36;20037;-52
2023/02/03 03:57:28;;;;;;;6.75;1.95;;;;;;;9.33;100.00;102226.56;2615667;36;20030;-55
2023/02/03 03:59:57;;;;;;;8.75;1.80;;;;;;;9.34;100.00;102244.44;2614023;36;20542;-53
2023/02/03 04:02:26;;;;;;;8.80;1.45;;;;;;;9.35;100.00;102250.66;2614717;36;20584;-54
2023/02/03 04:05:00;;;;;;;10.10;1.52;;;;;;;9.39;100.00;102255.78;2615416;36;20030;-52
2023/02/03 04:07:40;;;;;;;15.43;3.63;;;;;;;9.43;100.00;102257.28;2614478;36;20022;-55
2023/02/03 04:10:18;;;;;;;9.85;1.80;;;;;;;9.43;100.00;102254.59;2613806;31;20138;-55
2023/02/03 04:12:46;;;;;;;7.45;1.77;;;;;;;9.46;100.00;102257.09;2615359;36;20042;-54
2023/02/03 04:15:14;;;;;;;8.50;1.70;;;;;;;9.49;100.00;102258.75;2614004;36;20039;-54
2023/02/03 04:17:43;;;;;;;5.38;1.73;;;;;;;9.49;100.00;102248.00;2614575;36;20510;-52
2023/02/03 04:20:15;;;;;;;3.83;1.37;;;;;;;9.51;100.00;102258.66;2615372;31;20034;-57
2023/02/03 04:22:43;;;;;;;6.93;1.42;;;;;;;9.52;100.00;102268.44;2614051;36;20862;-51
2023/02/03 04:25:12;;;;;;;8.13;1.80;;;;;;;9.52;100.00;102258.56;2614500;36;20094;-50
2023/02/03 04:27:40;;;;;;;10.37;2.33;;;;;;;9.46;100.00;102251.72;2614213;36;20026;-52
2023/02/03 04:30:10;;;;;;;6.07;1.70;;;;;;;9.49;100.00;102252.53;2614671;36;20027;-54
2023/02/03 04:32:38;;;;;;;7.45;2.70;;;;;;;9.52;100.00;102246.94;2613796;36;20617;-56
2023/02/03 04:35:10;;;;;;;7.80;1.80;;;;;;;9.51;100.00;102234.47;2614667;36;20434;-53
2023/02/03 04:37:41;;;;;;;4.45;1.42;;;;;;;9.54;100.00;102226.22;2613269;36;20538;-56
2023/02/03 04:40:11;;;;;;;5.93;1.80;;;;;;;9.51;100.00;102234.47;2614232;36;20030;-52
2023/02/03 04:42:40;;;;;;;3.63;1.40;;;;;;;9.50;100.00;102222.00;2615627;36;20404;-56
2023/02/03 04:45:11;;;;;;;4.47;1.60;;;;;;;9.49;100.00;102215.75;2614135;36;20038;-57
2023/02/03 04:47:39;;;;;;;6.57;1.85;;;;;;;9.51;100.00;102229.09;2614447;36;20031;-56
2023/02/03 04:50:09;;;;;;;8.20;1.80;;;;;;;9.53;100.00;102238.78;2613644;36;20038;-55
2023/02/03 04:52:37;;;;;;;9.82;1.85;;;;;;;9.45;100.00;102230.31;2614310;36;20543;-50
2023/02/03 04:55:09;;;;;;;5.88;1.67;;;;;;;9.53;100.00;102232.56;2614801;36;20039;-55
2023/02/03 04:57:37;;;;;;;9.70;1.60;;;;;;;9.55;100.00;102236.84;2615416;36;20352;-53
2023/02/03 05:00:07;;;;;;;10.45;1.80;;;;;;;9.60;100.00;102233.91;2614379;36;20561;-56
2023/02/03 05:02:36;;;;;;;9.55;1.80;;;;;;;9.57;100.00;102228.69;2614842;36;20049;-55
2023/02/03 05:05:04;;;;;;;8.98;1.55;;;;;;;9.50;100.00;102239.00;2614924;36;20034;-53
2023/02/03 05:07:32;;;;;;;10.75;1.70;;;;;;;9.51;100.00;102226.41;2614117;36;20041;-52
2023/02/03 05:10:00;;;;;;;6.07;1.30;;;;;;;9.47;100.00;102229.28;2613802;36;20035;-53
2023/02/03 05:12:31;;;;;;;9.18;2.22;;;;;;;9.54;100.00;102240.53;2613700;36;20042;-53
2023/02/03 05:15:00;;;;;;;11.48;2.13;;;;;;;9.50;100.00;102262.31;2613642;36;20026;-51
2023/02/03 05:17:28;;;;;;;8.57;1.23;;;;;;;9.49;100.00;102255.22;2614228;36;20039;-52
2023/02/03 05:19:56;;;;;;;5.63;1.75;;;;;;;9.49;100.00;102252.53;2614462;36;20350;-52
2023/02/03 05:22:25;;;;;;;6.60;1.83;;;;;;;9.41;100.00;102256.53;2612681;36;20038;-50
2023/02/03 05:24:53;;;;;;;5.63;1.80;;;;;;;9.35;100.00;102256.91;2613155;36;20048;-56
2023/02/03 05:27:21;;;;;;;8.40;2.58;;;;;;;9.53;100.00;102254.91;2614895;36;20026;-57
2023/02/03 05:29:52;;;;;;;11.18;1.58;;;;;;;9.47;100.00;102250.78;2612758;36;20030;-53
2023/02/03 05:32:20;;;;;;;12.30;2.22;;;;;;;9.38;100.00;102256.72;2615299;36;20103;-53
2023/02/03 05:34:49;;;;;;;11.60;2.13;;;;;;;9.42;100.00;102242.16;2616500;36;20425;-56
2023/02/03 05:37:17;;;;;;;9.87;2.00;;;;;;;9.49;100.00;102237.25;2616147;36;20045;-53
2023/02/03 05:39:45;;;;;;;8.10;1.63;;;;;;;9.49;100.00;102242.63;2616595;36;20034;-52
2023/02/03 05:42:11;;;;;;;6.43;1.53;;;;;;;9.46;100.00;102232.06;2615285;31;20045;-52
2023/02/03 05:44:40;;;;;;;8.80;2.15;;;;;;;9.38;100.00;102231.66;2616233;36;20554;-54
2023/02/03 05:47:11;;;;;;;8.02;2.03;;;;;;;9.42;100.00;102255.59;2616358;31;20089;-56
2023/02/03 05:49:39;;;;;;;4.57;1.75;;;;;;;9.46;100.00;102254.41;2616873;36;20420;-57
2023/02/03 05:52:08;;;;;;;8.32;1.80;;;;;;;9.44;100.00;102268.94;2615825;36;20515;-52
2023/02/03 05:54:36;;;;;;;9.57;2.20;;;;;;;9.43;100.00;102254.59;2616242;36;20026;-49
2023/02/03 05:57:04;;;;;;;12.07;3.13;;;;;;;9.37;100.00;102243.41;2615574;36;20057;-55
2023/02/03 05:59:33;;;;;;;8.03;2.17;;;;;;;9.37;100.00;102236.19;2615701;36;20038;-54
2023/02/03 06:02:01;;;;;;;13.18;2.03;;;;;;;9.34;100.00;102249.81;2614933;36;20038;-55
2023/02/03 06:04:32;;;;;;;8.23;1.58;;;;;;;9.34;100.00;102239.06;2613236;31;20043;-55
2023/02/03 06:07:00;;;;;;;7.85;1.95;;;;;;;9.44;100.00;102234.84;2612599;36;20038;-54
2023/02/03 06:09:28;;;;;;;12.05;1.90;;;;;;;9.38;100.00;102231.66;2614968;36;20026;-56
2023/02/03 06:11:57;;;;;;;8.48;1.65;;;;;;;9.37;100.00;102255.00;2614665;36;20038;-53
2023/02/03 06:14:27;;;;;;;9.82;1.77;;;;;;;9.31;100.00;102233.03;2613495;36;20458;-55
2023/02/03 06:16:55;;;;;;;8.45;1.77;;;;;;;9.30;100.00;102237.50;2614749;36;20038;-57
2023/02/03 06:19:23;;;;;;;8.25;1.88;;;;;;;9.29;100.00;102241.19;2612031;36;20838;-54
2023/02/03 06:21:54;;;;;;;7.65;1.75;;;;;;;9.37;100.00;102244.25;2614099;36;20034;-57
2023/02/03 06:24:22;;;;;;;7.13;1.70;;;;;;;9.38;100.00;102271.97;2614195;36;20061;-52
2023/02/03 06:26:51;;;;;;;9.02;2.10;;;;;;;9.36;100.00;102264.00;2612562;36;20049;-57
2023/02/03 06:29:19;;;;;;;9.65;1.80;;;;;;;9.36;100.00;102258.63;2612693;36;20046;-51
2023/02/03 06:31:48;;;;;;;11.00;1.95;;;;;;;9.38;100.00;102267.47;2613546;36;20049;-55
2023/02/03 06:34:16;;;;;;;7.22;1.70;;;;;;;9.28;100.00;102255.56;2614298;31;20027;-55
2023/02/03 06:36:44;;;;;;;8.95;2.08;;;;;;;9.31;100.00;102266.13;2617105;36;20027;-54
2023/02/03 06:39:15;;;;;;;5.55;1.60;;;;;;;9.32;100.00;102261.59;2616674;36;20046;-51
2023/02/03 06:41:43;;;;;;;10.32;1.70;;;;;;;9.31;100.00;102266.13;2615521;36;20038;-51
2023/02/03 06:44:12;;;;;;;10.75;2.30;;;;;;;9.27;100.00;102276.16;2614193;31;20045;-52
2023/02/03 06:46:40;;;;;;;10.45;2.22;;;;;;;9.32;100.00;102275.91;2616978;36;20428;-54
2023/02/03 06:49:08;;;;;;;8.80;2.17;;;;;;;9.36;100.00;102284.66;2613777;31;20571;-54
2023/02/03 06:51:37;;;;;;;11.23;2.00;;;;;;;9.33;100.00;102277.63;2615885;36;20038;-52
2023/02/03 06:54:06;;;;;;;16.90;2.40;;;;;;;9.34;100.00;102292.81;2613997;36;20640;-54
2023/02/03 06:56:37;;;;;;;;;;;;;;;9.36;100.00;102280.13;2614244;36;20060;-54
2023/02/03 06:59:05;;;;;;;9.40;2.38;;;;;;;9.42;100.00;102282.47;2615143;36;20351;-54
2023/02/03 07:01:34;;;;;;;8.68;2.22;;;;;;;9.36;100.00;102273.91;2614656;36;20037;-54
2023/02/03 07:04:02;;;;;;;12.47;2.20;;;;;;;9.22;100.00;102274.75;2613206;36;20061;-58
2023/02/03 07:06:32;;;;;;;11.77;3.03;;;;;;;9.33;100.00;102291.06;2614880;36;20271;-53
2023/02/03 07:09:02;;;;;;;10.07;2.67;;;;;;;9.27;100.00;102291.44;2615782;36;20027;-55
2023/02/03 07:11:30;;;;;;;10.75;1.98;;;;;;;9.25;100.00;102288.00;2614766;36;20030;-53
2023/02/03 07:14:02;;;;;;;7.77;2.10;;;;;;;9.34;100.00;102289.25;2615473;36;20125;-55
2023/02/03 07:16:31;;;;;;;16.83;2.70;;;;;;;9.35;100.00;102275.72;2615568;36;20398;-51
2023/02/03 07:19:00;;;;;;;7.53;2.10;;;;;;;9.39;100.00;102273.72;2614199;36;20455;-54
2023/02/03 07:21:28;;;;;;;7.97;2.10;;;;;;;9.26;100.00;102277.16;2613722;36;20077;-54
2023/02/03 07:23:56;;;;;;;10.00;3.13;;;;;;;9.25;100.00;102286.16;2612721;36;20043;-57
2023/02/03 07:26:25;;;;;;;6.18;1.63;;;;;;;9.17;100.00;102275.03;2612894;31;20290;-57
2023/02/03 07:29:02;;;;;;;8.70;2.40;;;;;;;9.19;100.00;102280.31;2614651;36;20661;-53
2023/02/03 07:31:31;;;;;;;11.95;2.50;;;;;;;9.20;100.00;102290.06;2614390;31;20034;-54
2023/02/03 07:33:59;;;;;;;10.82;2.45;;;;;;;9.19;100.00;102293.75;2613778;36;20038;-50
2023/02/03 07:36:29;;;;;;;15.23;2.63;;;;;;;9.19;100.00;102293.75;2614787;36;20522;-55
2023/02/03 07:38:57;;;;;;;10.32;2.15;;;;;;;9.20;100.00;102299.03;2614612;36;20038;-55
2023/02/03 07:41:25;;;;;;;7.60;2.15;;;;;;;9.27;100.00;102303.03;2614907;36;20554;-53
2023/02/03 07:43:54;;;;;;;13.35;3.35;;;;;;;9.28;100.00;102314.69;2614968;31;20538;-53
2023/02/03 07:46:25;;;;;;;13.18;2.40;;;;;;;9.28;100.00;102326.28;2609346;36;20038;-55
2023/02/03 07:48:53;;;;;;;8.18;2.38;;;;;;;9.34;100.00;102322.34;2612179;36;20038;-58
2023/02/03 07:51:22;;;;;;;12.43;2.40;;;;;;;9.30;100.00;102326.19;2611047;36;20137;-52
2023/02/03 07:53:50;;;;;;;15.60;2.93;;;;;;;9.21;100.00;102318.69;2612096;36;20038;-52
2023/02/03 07:56:18;;;;;;;11.00;2.50;;;;;;;9.26;100.00;102332.69;2613721;36;20030;-55
2023/02/03 07:58:47;;;;;;;10.43;2.08;;;;;;;9.23;100.00;102333.75;2614861;36;20023;-55
2023/02/03 08:01:18;;;;;;;8.13;2.00;;;;;;;9.30;100.00;102334.25;2612389;36;20038;-52
2023/02/03 08:03:48;;;;;;;10.98;2.78;;;;;;;9.36;100.00;102327.63;2613535;36;20034;-55
2023/02/03 08:06:17;;;;;;;6.72;2.00;;;;;;;9.36;100.00;102333.88;2612875;36;20034;-58
2023/02/03 08:08:45;;;;;;;11.52;1.83;;;;;;;9.47;100.00;102352.06;2614496;36;20660;-55
2023/02/03 08:11:13;;;;;;;9.63;2.05;;;;;;;9.42;100.00;102357.72;2613305;36;20022;-53
2023/02/03 08:13:42;;;;;;;7.68;1.92;;;;;;;9.51;100.00;102363.47;2612808;36;20027;-57
2023/02/03 08:16:10;;;;;;;10.90;2.10;;;;;;;9.54;100.00;102364.16;2613667;36;20034;-57
2023/02/03 08:18:38;;;;;;;13.60;2.88;;;;;;;9.61;100.00;102364.66;2613588;36;20038;-56
2023/02/03 08:21:09;;;;;;;10.53;2.20;;;;;;;9.58;100.00;102356.78;2615203;36;20042;-52
2023/02/03 08:23:38;;;;;;;9.95;2.38;;;;;;;9.51;100.00;102358.09;2614642;36;20364;-54
2023/02/03 08:26:06;;;;;;;8.77;2.15;;;;;;;9.58;100.00;102368.38;2613758;36;20110;-54
2023/02/03 08:28:35;;;;;;;6.38;2.05;;;;;;;9.64;100.00;102357.28;2616009;36;20042;-56
2023/02/03 08:31:03;;;;;;;9.32;1.83;;;;;;;9.59;100.00;102345.06;2615741;36;20514;-55
2023/02/03 08:33:31;;;;;;;7.63;1.60;;;;;;;9.70;100.00;102358.75;2615688;36;20050;-51
2023/02/03 08:36:00;;;;;;;10.73;2.00;;;;;;;9.70;100.00;102364.13;2614616;36;20035;-57
2023/02/03 08:38:49;;;;;;;4.87;1.77;;;;;;;9.68;100.00;102365.16;2613945;36;20045;-52
2023/02/03 08:41:19;;;;;;;7.55;2.30;;;;;;;9.75;100.00;102374.59;2613061;36;20034;-55
2023/02/03 08:43:48;;;;;;;10.25;1.67;;;;;;;9.74;100.00;102387.13;2615467;31;20055;-56
2023/02/03 08:46:16;;;;;;;11.63;2.47;;;;;;;9.74;100.00;102381.75;2613986;31;20042;-57
2023/02/03 08:48:45;;;;;;;12.20;2.37;;;;;;;9.75;100.00;102374.59;2614678;36;20060;-54
2023/02/03 08:51:15;;;;;;;7.95;1.95;;;;;;;9.78;100.00;102375.25;2615274;36;20027;-54
2023/02/03 08:53:43;;;;;;;15.52;2.53;;;;;;;9.81;100.00;102375.06;2612605;36;20041;-55
2023/02/03 08:56:15;;;;;;;10.35;2.30;;;;;;;9.79;100.00;102358.16;2614186;36;20038;-57
2023/02/03 08:58:43;;;;;;;8.30;2.00;;;;;;;9.91;100.00;102371.78;2614309;36;20133;-55
2023/02/03 09:01:12;;;;;;;14.15;2.53;;;;;;;9.91;100.00;102366.41;2614103;36;20045;-52
2023/02/03 09:03:41;;;;;;;10.43;2.00;;;;;;;9.91;100.00;102393.31;2614950;36;20550;-53
2023/02/03 09:06:11;;;;;;;12.15;2.72;;;;;;;9.92;100.00;102368.16;2615098;36;20563;-55
2023/02/03 09:08:44;;;;;;;9.07;2.28;;;;;;;9.97;100.00;102376.81;2615466;54;20034;-54
2023/02/03 09:11:19;;;;;;;9.52;3.22;;;;;;;10.08;100.00;102394.97;2614883;36;20045;-54
2023/02/03 09:13:47;;;;;;;9.68;2.30;;;;;;;10.04;100.00;102378.19;2614732;36;20027;-51
2023/02/03 09:16:18;;;;;;;6.38;2.00;;;;;;;10.05;100.00;102373.66;2614603;31;20045;-56
2023/02/03 09:18:47;;;;;;;7.18;1.85;;;;;;;10.00;100.00;102382.84;2614631;36;20650;-55
2023/02/03 09:21:16;;;;;;;6.82;2.20;;;;;;;10.07;100.00;102372.59;2614895;36;20038;-52
2023/02/03 09:23:46;;;;;;;6.85;2.20;;;;;;;10.11;100.00;102370.56;2615052;36;20118;-54
2023/02/03 09:26:17;;;;;;;7.30;2.08;;;;;;;10.12;100.00;102378.53;2615747;36;20034;-54
2023/02/03 09:28:46;;;;;;;6.32;1.55;;;;;;;10.15;100.00;102382.88;2613322;36;20470;-53
2023/02/03 09:31:18;;;;;;;9.15;1.85;;;;;;;10.11;100.00;102374.09;2613818;36;20026;-52
2023/02/03 09:33:47;;;;;;;9.48;2.60;;;;;;;10.06;100.00;102391.53;2614791;36;20067;-53
2023/02/03 09:36:15;;;;;;;5.25;2.33;;;;;;;10.09;100.00;102381.44;2615509;31;20035;-51
2023/02/03 09:38:44;;;;;;;9.05;2.67;;;;;;;10.25;100.00;102391.25;2614420;36;20038;-53
2023/02/03 09:41:29;;;;;;;4.68;1.83;;;;;;;10.17;100.00;102387.22;2614745;31;20039;-54
2023/02/03 09:44:05;;;;;;;12.45;3.50;;;;;;;10.22;100.00;102394.09;2615362;36;20385;-51
2023/02/03 09:46:39;;;;;;;6.43;2.05;;;;;;;10.18;100.00;102396.13;2612558;31;20045;-55
2023/02/03 09:49:15;;;;;;;10.98;2.30;;;;;;;10.18;100.00;102385.38;2615785;36;20042;-54
2023/02/03 09:51:49;;;;;;;7.55;2.03;;;;;;;10.24;100.00;102389.50;2615804;36;20126;-55
2023/02/03 09:54:21;;;;;;;7.38;2.25;;;;;;;10.24;100.00;102400.28;2615285;36;20089;-52
2023/02/03 09:56:58;;;;;;;9.23;2.90;;;;;;;10.17;100.00;102403.34;2615352;36;20038;-53
2023/02/03 09:59:37;;;;;;;6.40;2.40;;;;;;;10.27;100.00;102400.94;2615679;36;20034;-56
2023/02/03 10:02:25;;;;;;;7.53;2.38;;;;;;;10.31;100.00;102409.69;2615512;36;20038;-54
2023/02/03 10:05:00;;;;;;;8.98;2.33;;;;;;;10.39;100.00;102409.25;2615442;36;20035;-51
2023/02/03 10:07:40;;;;;;;9.05;2.20;;;;;;;10.26;100.00;102404.59;2615887;36;20026;-52
2023/02/03 10:10:17;;;;;;;5.88;2.35;;;;;;;10.24;100.00;102401.13;2613257;36;20065;-57
2023/02/03 10:13:02;;;;;;;10.63;2.67;;;;;;;10.31;100.00;102413.25;2615221;36;20035;-54
2023/02/03 10:16:02;;;;;;;9.27;2.15;;;;;;;10.32;100.00;102430.25;2614777;31;20031;-54
2023/02/03 10:18:36;;;;;;;16.17;2.60;;;;;;;10.32;100.00;102441.00;2614985;36;20034;-54
2023/02/03 10:21:15;;;;;;;9.30;2.80;;;;;;;10.39;100.00;102445.09;2615717;36;20042;-54
2023/02/03 10:23:47;;;;;;;8.70;2.60;;;;;;;10.34;100.00;102436.44;2616131;36;20034;-57
2023/02/03 10:26:20;;;;;;;7.65;2.30;;;;;;;10.33;100.00;102429.28;2610826;36;20038;-54
2023/02/03 10:28:56;;;;;;;10.85;2.95;;;;;;;10.29;100.00;102443.88;2613712;36;20038;-51
2023/02/03 10:31:27;;;;;;;5.60;2.28;;;;;;;10.35;100.00;102454.34;2613401;31;20125;-52
2023/02/03 10:34:01;;;;;;;9.52;2.85;;;;;;;10.39;100.00;102468.44;2613276;36;20042;-55
2023/02/03 10:36:41;;;;;;;11.10;2.00;;;;;;;10.35;100.00;102462.41;2613489;31;20118;-54
2023/02/03 10:39:20;;;;;;;10.27;2.60;;;;;;;10.30;100.00;102451.88;2613669;36;20034;-54
2023/02/03 10:41:49;;;;;;;9.35;2.42;;;;;;;10.33;100.00;102461.59;2612742;36;20038;-54
2023/02/03 10:44:20;;;;;;;6.28;1.80;;;;;;;10.36;100.00;102465.94;2612918;36;20427;-54
2023/02/03 10:46:48;;;;;;;10.00;2.70;;;;;;;10.28;100.00;102477.16;2614793;36;20470;-53
2023/02/03 10:49:18;;;;;;;7.05;2.10;;;;;;;10.27;100.00;102475.44;2613856;36;20446;-53
2023/02/03 10:51:51;;;;;;;13.48;3.20;;;;;;;10.20;100.00;102463.31;2611860;31;20038;-49
2023/02/03 10:54:32;;;;;;;9.73;2.67;;;;;;;10.28;100.00;102474.47;2614433;36;20551;-55
2023/02/03 10:57:05;;;;;;;7.53;2.60;;;;;;;10.30;100.00;102475.22;2616204;36;20454;-53
2023/02/03 10:59:38;;;;;;;10.70;2.42;;;;;;;10.32;100.00;102476.00;2616028;31;20597;-52
2023/02/03 11:02:12;;;;;;;5.90;2.47;;;;;;;10.25;100.00;102474.66;2615656;36;20041;-56
2023/02/03 11:04:40;;;;;;;8.63;2.53;;;;;;;10.26;100.00;102477.25;2616706;36;20436;-54
2023/02/03 11:07:24;;;;;;;10.07;2.22;;;;;;;10.30;100.00;102486.00;2616710;36;20038;-52
2023/02/03 11:09:52;;;;;;;7.50;2.22;;;;;;;10.31;100.00;102493.13;2616141;36;20065;-53
2023/02/03 11:12:23;;;;;;;10.10;2.50;;;;;;;10.23;100.00;102492.72;2611899;31;20034;-49
2023/02/03 11:14:55;;;;;;;8.38;2.78;;;;;;;10.33;100.00;102481.34;2612742;36;20034;-53
2023/02/03 11:17:26;;;;;;;7.05;2.30;;;;;;;10.39;100.00;102480.06;2615908;36;20099;-54
2023/02/03 11:19:56;;;;;;;7.38;2.58;;;;;;;10.37;100.00;102486.53;2613430;36;20026;-54
2023/02/03 11:22:31;;;;;;;11.50;2.25;;;;;;;10.24;100.00;102478.31;2612404;31;20034;-53
2023/02/03 11:25:00;;;;;;;12.27;2.72;;;;;;;10.17;100.00;102489.44;2611994;36;20043;-57
2023/02/03 11:27:33;;;;;;;11.00;2.38;;;;;;;9.97;100.00;102492.47;2613080;36;20026;-53
2023/02/03 11:30:16;;;;;;;11.20;2.70;;;;;;;9.94;100.00;102506.13;2615131;36;20523;-53
2023/02/03 11:32:49;;;;;;;9.55;2.00;;;;;;;9.86;100.00;102509.25;2614089;36;20042;-54
2023/02/03 11:35:21;;;;;;;10.27;2.38;;;;;;;9.96;100.00;102517.63;2614469;36;20054;-51
2023/02/03 11:37:52;;;;;;;9.27;2.15;;;;;;;9.91;100.00;102511.66;2614374;36;20030;-53
2023/02/03 11:40:28;;;;;;;6.10;2.17;;;;;;;9.95;100.00;102518.59;2613879;36;20039;-50